Time;durP1;ratioP1;P1;durP2;ratioP2;P2;SDS_P1;SDS_P2;PMS_P1;PMS_P2;Temp;Humidity;BMP_temperature;BMP_pressure;BME280_temperature;BME280_humidity;BME280_pressure;Samples;Min_cycle;Max_cycle;Signal;HPM_P1;HPM_P2
2020/12/23 00:01:43;;;;;;;8.20;3.28;;;;;;;;;;5095689;28;20584;-71
2020/12/23 00:04:09;;;;;;;9.80;3.85;;;;;;;;;;5088774;28;20180;-71
2020/12/23 00:06:35;;;;;;;13.63;3.65;;;;;;;;;;5089893;28;20187;-71
2020/12/23 00:09:03;;;;;;;10.50;3.53;;;;;;;;;;5094048;28;20224;-71
2020/12/23 00:11:29;;;;;;;11.18;4.38;;;;;;;;;;5093658;28;20232;-72
2020/12/23 00:13:55;;;;;;;9.65;3.78;;;;;;;;;;5093634;28;20388;-73
2020/12/23 00:16:21;;;;;;;11.18;3.63;;;;;;;;;;5092655;28;20176;-72
2020/12/23 00:18:47;;;;;;;9.85;3.88;;;;;;;;;;5095621;28;20746;-72
2020/12/23 00:21:13;;;;;;;12.38;3.08;;;;;;;;;;5091446;28;20255;-72
2020/12/23 00:23:39;;;;;;;14.57;3.80;;;;;;;;;;5094022;28;20258;-72
2020/12/23 00:26:08;;;;;;;8.90;3.60;;;;;;;;;;5091112;28;20172;-72
2020/12/23 00:28:35;;;;;;;12.05;3.40;;;;;;;;;;5088029;28;20179;-73
2020/12/23 00:31:01;;;;;;;7.68;3.20;;;;;;;;;;5095342;28;20191;-71
2020/12/23 00:33:27;;;;;;;10.43;3.30;;;;;;;;;;5092201;28;20202;-72
2020/12/23 00:35:53;;;;;;;14.40;4.10;;;;;;;;;;5092902;28;20168;-73
2020/12/23 00:38:19;;;;;;;9.13;3.05;;;;;;;;;;5094969;28;20184;-72
2020/12/23 00:40:45;;;;;;;11.35;3.88;;;;;;;;;;5095247;28;20653;-72
2020/12/23 00:43:11;;;;;;;13.68;3.88;;;;;;;;;;5095100;28;20195;-73
2020/12/23 00:45:37;;;;;;;11.75;4.25;;;;;;;;;;5094199;28;20295;-72
2020/12/23 00:48:04;;;;;;;11.93;4.30;;;;;;;;;;5094883;28;20190;-72
2020/12/23 00:50:30;;;;;;;9.65;3.90;;;;;;;;;;5095097;28;20286;-73
2020/12/23 00:52:56;;;;;;;15.30;4.18;;;;;;;;;;5095380;28;20249;-73
2020/12/23 00:55:22;;;;;;;10.07;4.10;;;;;;;;;;5094991;28;20176;-71
2020/12/23 00:57:48;;;;;;;12.20;3.78;;;;;;;;;;5095360;28;20178;-71
2020/12/23 01:00:14;;;;;;;8.77;4.45;;;;;;;;;;5095055;28;20210;-72
2020/12/23 01:02:43;;;;;;;10.65;3.90;;;;;;;;;;5095209;28;20636;-72
2020/12/23 01:05:09;;;;;;;12.30;4.35;;;;;;;;;;5094727;28;20224;-72
2020/12/23 01:07:35;;;;;;;18.98;5.47;;;;;;;;;;5095037;28;20196;-72
2020/12/23 01:10:01;;;;;;;15.98;5.70;;;;;;;;;;5094974;28;20199;-72
2020/12/23 01:12:27;;;;;;;9.85;5.10;;;;;;;;;;5094937;28;20230;-72
2020/12/23 01:14:53;;;;;;;9.85;4.95;;;;;;;;;;5080944;28;20191;-72
2020/12/23 01:17:19;;;;;;;13.13;5.73;;;;;;;;;;5081927;28;20199;-71
2020/12/23 01:19:45;;;;;;;10.48;5.07;;;;;;;;;;5074557;28;20433;-73
2020/12/23 01:22:11;;;;;;;6.57;5.10;;;;;;;;;;5077492;28;20180;-72
2020/12/23 01:24:37;;;;;;;13.35;4.60;;;;;;;;;;5082255;28;20204;-73
2020/12/23 01:27:03;;;;;;;14.05;5.80;;;;;;;;;;5092839;28;20263;-73
2020/12/23 01:29:29;;;;;;;10.80;5.35;;;;;;;;;;5090471;28;20593;-73
2020/12/23 01:31:55;;;;;;;12.27;5.45;;;;;;;;;;5094764;28;20263;-73
2020/12/23 01:34:21;;;;;;;13.80;5.60;;;;;;;;;;5081338;28;20174;-72
2020/12/23 01:36:50;;;;;;;12.30;6.38;;;;;;;;;;5073921;28;20592;-73
2020/12/23 01:39:16;;;;;;;11.43;5.65;;;;;;;;;;5078238;28;20211;-72
2020/12/23 01:41:42;;;;;;;16.88;6.40;;;;;;;;;;5090857;28;20179;-74
2020/12/23 01:44:09;;;;;;;9.90;6.05;;;;;;;;;;5093614;28;20187;-72
2020/12/23 01:46:35;;;;;;;14.68;6.10;;;;;;;;;;5094124;28;20225;-71
2020/12/23 01:49:07;;;;;;;9.85;5.65;;;;;;;;;;5087409;28;20195;-72
2020/12/23 01:51:33;;;;;;;15.63;6.70;;;;;;;;;;5079783;28;20176;-72
2020/12/23 01:54:00;;;;;;;15.02;6.45;;;;;;;;;;5082668;28;20204;-72
2020/12/23 01:56:26;;;;;;;19.02;7.13;;;;;;;;;;5091401;28;20203;-72
2020/12/23 01:58:52;;;;;;;18.00;6.15;;;;;;;;;;5086041;28;20184;-73
2020/12/23 02:01:21;;;;;;;10.82;6.95;;;;;;;;;;5073649;28;20222;-72
2020/12/23 02:03:48;;;;;;;14.70;7.50;;;;;;;;;;5073632;28;20184;-72
2020/12/23 02:06:14;;;;;;;22.38;12.50;;;;;;;;;;5082755;28;20262;-73
2020/12/23 02:08:41;;;;;;;11.68;7.25;;;;;;;;;;5076585;28;20352;-72
2020/12/23 02:11:09;;;;;;;13.98;6.30;;;;;;;;;;5093662;28;20230;-72
2020/12/23 02:13:36;;;;;;;18.60;6.97;;;;;;;;;;5086907;28;20553;-73
2020/12/23 02:16:02;;;;;;;11.10;6.25;;;;;;;;;;5093326;28;20506;-72
2020/12/23 02:18:28;;;;;;;12.90;7.05;;;;;;;;;;5092869;28;20548;-72
2020/12/23 02:20:54;;;;;;;14.18;6.47;;;;;;;;;;5093396;28;20194;-72
2020/12/23 02:23:20;;;;;;;13.85;5.93;;;;;;;;;;5089044;28;20220;-72
2020/12/23 02:25:46;;;;;;;16.95;5.93;;;;;;;;;;5091770;28;20717;-72
2020/12/23 02:28:12;;;;;;;23.00;7.05;;;;;;;;;;5089440;28;20183;-73
2020/12/23 02:30:38;;;;;;;13.98;5.95;;;;;;;;;;5093504;28;20560;-73
2020/12/23 02:33:04;;;;;;;19.38;7.10;;;;;;;;;;5088698;28;20199;-72
2020/12/23 02:35:30;;;;;;;15.50;7.22;;;;;;;;;;5086196;28;20175;-72
2020/12/23 02:37:56;;;;;;;19.13;6.63;;;;;;;;;;5076526;28;20176;-72
2020/12/23 02:40:22;;;;;;;12.93;6.32;;;;;;;;;;5078490;28;20196;-72
2020/12/23 02:42:48;;;;;;;16.58;6.65;;;;;;;;;;5085029;28;20183;-72
2020/12/23 02:45:14;;;;;;;15.52;7.20;;;;;;;;;;5091200;28;20207;-73
2020/12/23 02:47:40;;;;;;;18.40;7.03;;;;;;;;;;5079609;28;20179;-72
2020/12/23 02:50:06;;;;;;;13.32;7.10;;;;;;;;;;5093232;28;20331;-72
2020/12/23 02:52:32;;;;;;;17.27;8.85;;;;;;;;;;5093109;28;20199;-71
2020/12/23 02:54:58;;;;;;;13.02;8.05;;;;;;;;;;5090766;28;20217;-72
2020/12/23 02:57:24;;;;;;;24.75;10.02;;;;;;;;;;5092705;28;20629;-73
2020/12/23 02:59:51;;;;;;;25.88;8.80;;;;;;;;;;5093118;28;20274;-72
2020/12/23 03:02:17;;;;;;;24.20;9.07;;;;;;;;;;5093099;28;20317;-72
2020/12/23 03:04:43;;;;;;;18.25;8.85;;;;;;;;;;5077306;28;20250;-73
2020/12/23 03:07:09;;;;;;;14.68;8.50;;;;;;;;;;5082038;28;20270;-73
2020/12/23 03:09:35;;;;;;;16.30;8.38;;;;;;;;;;5081327;28;20207;-72
2020/12/23 03:12:01;;;;;;;16.65;8.98;;;;;;;;;;5092855;28;20185;-74
2020/12/23 03:14:27;;;;;;;21.23;9.80;;;;;;;;;;5084419;28;20266;-72
2020/12/23 03:16:53;;;;;;;18.17;9.45;;;;;;;;;;5092963;28;20202;-73
2020/12/23 03:19:19;;;;;;;17.70;11.00;;;;;;;;;;5092368;28;20703;-72
2020/12/23 03:21:45;;;;;;;22.98;10.90;;;;;;;;;;5092526;28;20262;-72
2020/12/23 03:24:11;;;;;;;19.58;10.80;;;;;;;;;;5088228;28;20644;-73
2020/12/23 03:26:37;;;;;;;25.10;10.82;;;;;;;;;;5081086;28;20176;-72
2020/12/23 03:29:03;;;;;;;17.10;10.00;;;;;;;;;;5081864;28;20168;-73
2020/12/23 03:31:29;;;;;;;21.38;12.20;;;;;;;;;;5092576;28;20175;-72
2020/12/23 03:33:56;;;;;;;25.90;11.38;;;;;;;;;;5082539;28;20289;-73
2020/12/23 03:36:22;;;;;;;23.70;11.32;;;;;;;;;;5092396;28;20179;-73
2020/12/23 03:38:48;;;;;;;20.13;10.90;;;;;;;;;;5080356;28;20202;-72
2020/12/23 03:41:15;;;;;;;25.52;12.00;;;;;;;;;;5092921;28;20207;-73
2020/12/23 03:43:41;;;;;;;17.45;10.48;;;;;;;;;;5075033;28;20542;-72
2020/12/23 03:46:07;;;;;;;28.27;14.30;;;;;;;;;;5072810;28;20183;-73
2020/12/23 03:48:33;;;;;;;33.08;18.30;;;;;;;;;;5092340;28;20251;-71
2020/12/23 03:50:59;;;;;;;34.35;18.23;;;;;;;;;;5092870;28;20207;-72
2020/12/23 03:53:25;;;;;;;34.90;17.85;;;;;;;;;;5075003;28;20215;-72
2020/12/23 03:55:51;;;;;;;33.90;18.00;;;;;;;;;;5072252;28;20176;-71
2020/12/23 03:58:17;;;;;;;32.65;17.95;;;;;;;;;;5086296;28;20180;-72
2020/12/23 04:00:44;;;;;;;38.05;20.30;;;;;;;;;;5092957;28;20195;-73
2020/12/23 04:03:10;;;;;;;42.63;20.25;;;;;;;;;;5092467;28;20739;-71
2020/12/23 04:05:36;;;;;;;37.33;20.45;;;;;;;;;;5081886;28;20533;-72
2020/12/23 04:08:02;;;;;;;50.83;24.30;;;;;;;;;;5079173;28;20187;-71
2020/12/23 04:10:28;;;;;;;57.20;23.52;;;;;;;;;;5082185;28;20197;-71
2020/12/23 04:12:54;;;;;;;80.72;26.40;;;;;;;;;;5084843;28;20549;-72
2020/12/23 04:15:20;;;;;;;65.43;24.70;;;;;;;;;;5079252;28;20177;-71
2020/12/23 04:17:46;;;;;;;60.67;27.15;;;;;;;;;;5087794;28;20222;-71
2020/12/23 04:20:12;;;;;;;63.20;23.63;;;;;;;;;;5083127;28;20196;-72
2020/12/23 04:22:38;;;;;;;64.18;25.92;;;;;;;;;;5075749;28;20184;-72
2020/12/23 04:25:06;;;;;;;58.63;25.20;;;;;;;;;;5093260;28;20228;-73
2020/12/23 04:27:32;;;;;;;80.47;27.40;;;;;;;;;;5093226;28;20232;-73
2020/12/23 04:29:58;;;;;;;74.72;28.65;;;;;;;;;;5079580;28;20206;-72
2020/12/23 04:32:24;;;;;;;80.03;27.58;;;;;;;;;;5091089;28;20203;-72
2020/12/23 04:34:50;;;;;;;79.10;26.52;;;;;;;;;;5085193;28;20183;-71
2020/12/23 04:37:16;;;;;;;247.50;30.80;;;;;;;;;;5092146;28;20175;-70
2020/12/23 04:39:42;;;;;;;96.75;24.75;;;;;;;;;;5088043;28;20206;-72
2020/12/23 04:42:08;;;;;;;83.20;24.52;;;;;;;;;;5092966;28;20175;-72
2020/12/23 04:44:35;;;;;;;91.25;24.35;;;;;;;;;;5084718;28;20640;-73
2020/12/23 04:47:02;;;;;;;158.55;28.13;;;;;;;;;;5092731;28;20234;-73
2020/12/23 04:49:29;;;;;;;96.05;23.85;;;;;;;;;;5085115;28;20557;-71
2020/12/23 04:51:56;;;;;;;130.95;24.88;;;;;;;;;;5092205;28;20180;-71
2020/12/23 04:54:22;;;;;;;170.00;28.30;;;;;;;;;;5088602;28;20283;-72
2020/12/23 04:56:49;;;;;;;81.25;22.77;;;;;;;;;;5081604;28;20705;-72
2020/12/23 04:59:15;;;;;;;72.43;23.33;;;;;;;;;;5091954;28;20206;-72
2020/12/23 05:01:42;;;;;;;292.13;32.75;;;;;;;;;;5095113;28;20331;-72
2020/12/23 05:04:08;;;;;;;118.20;26.42;;;;;;;;;;5094828;28;20172;-73
2020/12/23 05:06:37;;;;;;;106.40;24.35;;;;;;;;;;5095272;28;20183;-72
2020/12/23 05:09:06;;;;;;;156.50;24.17;;;;;;;;;;5090001;28;20179;-72
2020/12/23 05:11:33;;;;;;;70.68;21.98;;;;;;;;;;5095414;28;20540;-72
2020/12/23 05:14:06;;;;;;;198.60;31.27;;;;;;;;;;5094200;28;20214;-72
2020/12/23 05:16:32;;;;;;;63.60;23.95;;;;;;;;;;5094693;28;20300;-72
2020/12/23 05:18:59;;;;;;;86.18;24.60;;;;;;;;;;5091508;28;20229;-72
2020/12/23 05:21:26;;;;;;;106.13;25.33;;;;;;;;;;5079574;28;20563;-72
2020/12/23 05:23:52;;;;;;;87.25;26.33;;;;;;;;;;5082217;28;20187;-73
2020/12/23 05:26:18;;;;;;;323.50;38.83;;;;;;;;;;5074286;28;20583;-72
2020/12/23 05:28:45;;;;;;;324.75;38.38;;;;;;;;;;5094484;28;20179;-71
2020/12/23 05:31:12;;;;;;;189.48;30.45;;;;;;;;;;5094636;28;20184;-72
2020/12/23 05:33:39;;;;;;;89.45;23.52;;;;;;;;;;5093364;28;20271;-73
2020/12/23 05:36:06;;;;;;;91.07;26.45;;;;;;;;;;5094629;28;20528;-73
2020/12/23 05:38:33;;;;;;;207.50;30.05;;;;;;;;;;5088171;28;20176;-72
2020/12/23 05:41:00;;;;;;;69.05;23.13;;;;;;;;;;5094487;28;20362;-72
2020/12/23 05:43:26;;;;;;;226.60;31.35;;;;;;;;;;5085860;28;20268;-73
2020/12/23 05:45:56;;;;;;;86.38;23.35;;;;;;;;;;5093557;28;20176;-73
2020/12/23 05:48:22;;;;;;;105.30;23.48;;;;;;;;;;5084276;28;20180;-72
2020/12/23 05:50:48;;;;;;;110.60;25.00;;;;;;;;;;5086991;28;20235;-73
2020/12/23 05:53:14;;;;;;;91.18;24.35;;;;;;;;;;5082638;28;20203;-72
2020/12/23 05:55:47;;;;;;;89.22;23.77;;;;;;;;;;5077061;28;20241;-70
2020/12/23 05:58:26;;;;;;;78.50;24.70;;;;;;;;;;5087018;28;20186;-70
2020/12/23 06:00:53;;;;;;;180.15;29.27;;;;;;;;;;5083779;28;20595;-72
2020/12/23 06:03:21;;;;;;;289.52;32.70;;;;;;;;;;5094140;28;20175;-73
2020/12/23 06:05:56;;;;;;;65.78;24.35;;;;;;;;;;5087010;28;20267;-71
2020/12/23 06:08:29;;;;;;;66.47;23.77;;;;;;;;;;5081944;28;20517;-73
2020/12/23 06:10:57;;;;;;;84.05;24.90;;;;;;;;;;5090950;28;20355;-72
2020/12/23 06:13:29;;;;;;;55.50;22.40;;;;;;;;;;5082385;28;20256;-72
2020/12/23 06:15:57;;;;;;;92.32;23.60;;;;;;;;;;5089560;28;20194;-72
2020/12/23 06:18:24;;;;;;;108.68;25.58;;;;;;;;;;5093049;28;20213;-71
2020/12/23 06:20:50;;;;;;;198.40;27.67;;;;;;;;;;5093446;28;20190;-72
2020/12/23 06:23:26;;;;;;;84.07;23.10;;;;;;;;;;5076343;28;20715;-73
2020/12/23 06:25:52;;;;;;;82.47;24.15;;;;;;;;;;5089123;28;20267;-73
2020/12/23 06:28:21;;;;;;;68.72;23.25;;;;;;;;;;5075003;28;20533;-72
2020/12/23 06:30:49;;;;;;;64.28;22.75;;;;;;;;;;5076447;28;20214;-70
2020/12/23 06:33:16;;;;;;;395.77;38.35;;;;;;;;;;5078175;28;20203;-72
2020/12/23 06:35:42;;;;;;;92.63;23.92;;;;;;;;;;5093358;28;20175;-73
2020/12/23 06:38:19;;;;;;;68.32;23.95;;;;;;;;;;5087604;28;20172;-72
2020/12/23 06:40:59;;;;;;;232.65;34.00;;;;;;;;;;5077689;28;20679;-71
2020/12/23 06:43:59;;;;;;;158.68;29.17;;;;;;;;;;5072467;28;20263;-73
2020/12/23 06:46:25;;;;;;;282.27;33.22;;;;;;;;;;5086854;28;20183;-72
2020/12/23 06:48:51;;;;;;;104.05;23.10;;;;;;;;;;5091553;28;20175;-72
2020/12/23 06:51:39;;;;;;;248.90;29.08;;;;;;;;;;5073250;28;20272;-74
2020/12/23 06:54:05;;;;;;;185.45;28.15;;;;;;;;;;5090762;28;20203;-71
2020/12/23 06:56:46;;;;;;;94.32;22.63;;;;;;;;;;5093111;28;20183;-72
2020/12/23 06:59:31;;;;;;;81.97;25.88;;;;;;;;;;5093009;28;20203;-72
2020/12/23 07:02:01;;;;;;;58.67;23.98;;;;;;;;;;5093134;28;20179;-73
2020/12/23 07:04:29;;;;;;;52.05;23.38;;;;;;;;;;5092678;28;20171;-72
2020/12/23 07:06:55;;;;;;;51.15;24.60;;;;;;;;;;5093130;28;20526;-72
2020/12/23 07:09:21;;;;;;;51.42;22.50;;;;;;;;;;5092894;28;20704;-72
2020/12/23 07:11:52;;;;;;;60.33;23.50;;;;;;;;;;5092983;28;20175;-72
2020/12/23 07:14:21;;;;;;;145.98;27.75;;;;;;;;;;5082781;28;20729;-72
2020/12/23 07:16:47;;;;;;;86.25;25.25;;;;;;;;;;5076106;28;20728;-72
2020/12/23 07:19:14;;;;;;;75.07;24.83;;;;;;;;;;5072469;28;20511;-73
2020/12/23 07:21:40;;;;;;;155.63;28.48;;;;;;;;;;5072651;28;20176;-72
2020/12/23 07:24:07;;;;;;;122.07;23.70;;;;;;;;;;5072201;28;20176;-72
2020/12/23 07:26:37;;;;;;;126.47;24.33;;;;;;;;;;5072629;28;20327;-73
2020/12/23 07:29:08;;;;;;;65.70;21.10;;;;;;;;;;5072717;28;20534;-72
2020/12/23 07:31:38;;;;;;;112.40;23.65;;;;;;;;;;5072311;28;20338;-72
2020/12/23 07:34:06;;;;;;;104.63;22.52;;;;;;;;;;5084566;28;20597;-73
2020/12/23 07:36:33;;;;;;;82.07;21.85;;;;;;;;;;5092682;28;20168;-72
2020/12/23 07:39:01;;;;;;;65.63;22.60;;;;;;;;;;5092542;28;20175;-72
2020/12/23 07:41:27;;;;;;;193.68;29.48;;;;;;;;;;5092539;28;20174;-72
2020/12/23 07:43:55;;;;;;;54.20;22.30;;;;;;;;;;5092083;28;20544;-72
2020/12/23 07:46:24;;;;;;;58.25;22.25;;;;;;;;;;5092316;28;20176;-72
2020/12/23 07:48:50;;;;;;;127.88;23.98;;;;;;;;;;5092413;28;20183;-72
2020/12/23 07:51:16;;;;;;;54.25;20.38;;;;;;;;;;5082205;28;20233;-71
2020/12/23 07:53:42;;;;;;;53.70;21.10;;;;;;;;;;5091785;28;20199;-71
2020/12/23 07:56:08;;;;;;;85.35;22.85;;;;;;;;;;5086525;28;20183;-72
2020/12/23 07:58:34;;;;;;;132.82;25.45;;;;;;;;;;5081912;28;20540;-72
2020/12/23 08:01:00;;;;;;;56.75;20.02;;;;;;;;;;5089628;28;20199;-71
2020/12/23 08:03:27;;;;;;;55.08;21.27;;;;;;;;;;5085920;28;20184;-71
2020/12/23 08:06:12;;;;;;;73.43;22.45;;;;;;;;;;5083670;28;20188;-73
2020/12/23 08:08:39;;;;;;;41.67;20.40;;;;;;;;;;5079262;28;20195;-73
2020/12/23 08:11:08;;;;;;;49.03;22.05;;;;;;;;;;5090538;28;20203;-73
2020/12/23 08:13:34;;;;;;;46.85;21.60;;;;;;;;;;5088243;28;20294;-73
2020/12/23 08:16:13;;;;;;;48.72;23.27;;;;;;;;;;5090465;28;20575;-72
2020/12/23 08:18:40;;;;;;;48.95;22.52;;;;;;;;;;5091004;28;20286;-73
2020/12/23 08:21:12;;;;;;;44.85;21.17;;;;;;;;;;5078297;28;20691;-73
2020/12/23 08:23:39;;;;;;;59.10;20.92;;;;;;;;;;5091166;28;20195;-73
2020/12/23 08:26:05;;;;;;;49.38;22.35;;;;;;;;;;5088836;28;20182;-73
2020/12/23 08:28:38;;;;;;;46.17;22.10;;;;;;;;;;5090563;28;20515;-73
2020/12/23 08:31:05;;;;;;;45.28;22.23;;;;;;;;;;5091432;28;20295;-73
2020/12/23 08:33:31;;;;;;;53.30;23.65;;;;;;;;;;5091044;28;20287;-73
2020/12/23 08:36:01;;;;;;;57.65;22.58;;;;;;;;;;5083809;28;20172;-72
2020/12/23 08:38:27;;;;;;;51.70;22.65;;;;;;;;;;5091775;28;20207;-73
2020/12/23 08:40:55;;;;;;;54.42;22.17;;;;;;;;;;5089100;28;20914;-73
2020/12/23 08:43:21;;;;;;;57.38;24.05;;;;;;;;;;5091829;28;20820;-72
2020/12/23 08:45:48;;;;;;;55.10;21.50;;;;;;;;;;5089739;28;20257;-73
2020/12/23 08:48:21;;;;;;;104.28;22.50;;;;;;;;;;5091230;28;20232;-73
2020/12/23 08:50:58;;;;;;;58.63;20.55;;;;;;;;;;5087527;28;20209;-73
2020/12/23 08:53:34;;;;;;;150.02;25.38;;;;;;;;;;5076867;28;20684;-72
2020/12/23 08:56:20;;;;;;;50.63;21.77;;;;;;;;;;5083068;28;20190;-73
2020/12/23 08:58:58;;;;;;;139.07;27.85;;;;;;;;;;5091096;28;20184;-72
2020/12/23 09:01:25;;;;;;;110.75;24.33;;;;;;;;;;5074743;28;20179;-72
2020/12/23 09:03:57;;;;;;;42.97;21.60;;;;;;;;;;5074554;28;20214;-72
2020/12/23 09:06:23;;;;;;;45.92;20.60;;;;;;;;;;5074379;28;20203;-73
2020/12/23 09:08:49;;;;;;;46.60;21.77;;;;;;;;;;5078675;28;20187;-72
2020/12/23 09:11:15;;;;;;;38.88;19.77;;;;;;;;;;5091444;28;20186;-72
2020/12/23 09:13:42;;;;;;;53.08;21.13;;;;;;;;;;5085873;28;20731;-72
2020/12/23 09:16:08;;;;;;;42.10;20.15;;;;;;;;;;5090642;28;20214;-72
2020/12/23 09:18:34;;;;;;;82.40;23.67;;;;;;;;;;5091050;28;20190;-72
2020/12/23 09:21:03;;;;;;;82.60;22.60;;;;;;;;;;5090894;28;20890;-73
2020/12/23 09:23:29;;;;;;;114.78;22.98;;;;;;;;;;5085868;28;20188;-72
2020/12/23 09:25:56;;;;;;;94.82;22.35;;;;;;;;;;5073465;28;20187;-72
2020/12/23 09:28:25;;;;;;;47.28;21.75;;;;;;;;;;5091080;28;20180;-72
2020/12/23 09:30:51;;;;;;;107.03;21.92;;;;;;;;;;5074102;28;20200;-70
2020/12/23 09:33:19;;;;;;;65.10;21.13;;;;;;;;;;5090828;28;20568;-71
2020/12/23 09:35:46;;;;;;;53.03;23.00;;;;;;;;;;5085991;28;20664;-72
2020/12/23 09:38:13;;;;;;;67.07;19.77;;;;;;;;;;5090576;28;20663;-71
2020/12/23 09:40:41;;;;;;;62.97;17.55;;;;;;;;;;5079475;28;20332;-72
2020/12/23 09:43:11;;;;;;;68.30;19.88;;;;;;;;;;5086070;28;20199;-72
2020/12/23 09:45:37;;;;;;;47.08;18.80;;;;;;;;;;5090235;28;20183;-72
2020/12/23 09:48:03;;;;;;;36.53;18.83;;;;;;;;;;5087292;28;20802;-72
2020/12/23 09:50:29;;;;;;;43.45;19.08;;;;;;;;;;5080673;28;20567;-72
2020/12/23 09:52:55;;;;;;;55.33;21.52;;;;;;;;;;5090193;28;20276;-72
2020/12/23 09:55:22;;;;;;;39.63;18.85;;;;;;;;;;5075529;28;20186;-72
2020/12/23 09:57:48;;;;;;;99.07;22.85;;;;;;;;;;5079120;28;20185;-72
2020/12/23 10:00:17;;;;;;;44.58;20.95;;;;;;;;;;5075646;28;20203;-72
2020/12/23 10:02:43;;;;;;;43.63;20.30;;;;;;;;;;5077918;28;20187;-72
2020/12/23 10:05:09;;;;;;;36.50;18.50;;;;;;;;;;5078223;28;20202;-71
2020/12/23 10:07:35;;;;;;;39.92;20.27;;;;;;;;;;5089908;28;20195;-72
2020/12/23 10:10:01;;;;;;;37.65;18.23;;;;;;;;;;5085317;28;20204;-72
2020/12/23 10:12:27;;;;;;;40.70;19.55;;;;;;;;;;5089688;28;20765;-73
2020/12/23 10:14:53;;;;;;;36.22;16.50;;;;;;;;;;5087638;28;20744;-73
2020/12/23 10:17:19;;;;;;;34.78;16.80;;;;;;;;;;5088661;28;20211;-72
2020/12/23 10:19:45;;;;;;;32.13;17.50;;;;;;;;;;5088802;28;20569;-72
2020/12/23 10:22:11;;;;;;;44.55;19.95;;;;;;;;;;5089066;28;20179;-72
2020/12/23 10:24:38;;;;;;;41.20;20.70;;;;;;;;;;5089015;28;20198;-74
2020/12/23 10:27:04;;;;;;;37.65;18.15;;;;;;;;;;5089841;28;20184;-72
2020/12/23 10:29:30;;;;;;;39.08;19.13;;;;;;;;;;5089370;28;20195;-71
2020/12/23 10:31:56;;;;;;;40.63;19.02;;;;;;;;;;5074276;28;20176;-71
2020/12/23 10:34:22;;;;;;;34.55;17.92;;;;;;;;;;5075012;28;20576;-72
2020/12/23 10:36:48;;;;;;;31.40;16.70;;;;;;;;;;5076484;28;20649;-71
2020/12/23 10:39:16;;;;;;;31.95;17.52;;;;;;;;;;5071527;28;20200;-71
2020/12/23 10:41:42;;;;;;;30.05;16.73;;;;;;;;;;5076163;28;20186;-72
2020/12/23 10:44:08;;;;;;;34.67;16.05;;;;;;;;;;5069458;28;20263;-72
2020/12/23 10:46:34;;;;;;;30.92;17.58;;;;;;;;;;5089306;28;20262;-72
2020/12/23 10:49:00;;;;;;;30.83;17.02;;;;;;;;;;5089298;28;20179;-72
2020/12/23 10:51:26;;;;;;;34.50;16.27;;;;;;;;;;5072456;28;20264;-71
2020/12/23 10:53:52;;;;;;;34.38;17.13;;;;;;;;;;5085890;28;20203;-72
2020/12/23 10:56:18;;;;;;;32.30;18.27;;;;;;;;;;5080906;28;20184;-73
2020/12/23 10:58:47;;;;;;;40.63;20.63;;;;;;;;;;5077451;28;20179;-73
2020/12/23 11:01:17;;;;;;;33.00;18.75;;;;;;;;;;5074511;28;20244;-72
2020/12/23 11:03:43;;;;;;;32.95;17.35;;;;;;;;;;5088969;28;20244;-74
2020/12/23 11:06:09;;;;;;;31.92;17.15;;;;;;;;;;5086142;28;20196;-71
2020/12/23 11:08:35;;;;;;;29.95;15.85;;;;;;;;;;5069151;28;20203;-73
2020/12/23 11:11:01;;;;;;;40.92;18.73;;;;;;;;;;5087543;28;20733;-72
2020/12/23 11:13:27;;;;;;;37.30;19.30;;;;;;;;;;5088573;28;20252;-73
2020/12/23 11:15:53;;;;;;;36.25;17.85;;;;;;;;;;5082750;28;20191;-71
2020/12/23 11:18:19;;;;;;;32.30;17.60;;;;;;;;;;5084522;28;20190;-72
2020/12/23 11:20:46;;;;;;;32.10;17.27;;;;;;;;;;5072585;28;20599;-73
2020/12/23 11:23:26;;;;;;;29.08;15.95;;;;;;;;;;5087058;28;20307;-72
2020/12/23 11:25:52;;;;;;;33.15;20.60;;;;;;;;;;5083797;28;20176;-72
2020/12/23 11:28:18;;;;;;;30.33;18.48;;;;;;;;;;5087278;28;20530;-71
2020/12/23 11:30:44;;;;;;;27.83;18.20;;;;;;;;;;5084448;28;20670;-72
2020/12/23 11:33:10;;;;;;;24.02;16.23;;;;;;;;;;5092537;28;20210;-71
2020/12/23 11:35:36;;;;;;;27.50;17.13;;;;;;;;;;5092466;28;20266;-72
2020/12/23 11:38:02;;;;;;;20.70;14.43;;;;;;;;;;5078281;28;20255;-72
2020/12/23 11:40:28;;;;;;;24.75;14.35;;;;;;;;;;5077648;28;20568;-72
2020/12/23 11:42:54;;;;;;;22.48;16.77;;;;;;;;;;5080260;28;20179;-72
2020/12/23 11:45:20;;;;;;;31.33;25.50;;;;;;;;;;5089378;28;20190;-71
2020/12/23 11:47:47;;;;;;;17.80;14.82;;;;;;;;;;5091351;28;20175;-72
2020/12/23 11:50:13;;;;;;;17.80;12.55;;;;;;;;;;5084711;28;20508;-72
2020/12/23 11:52:39;;;;;;;18.38;12.65;;;;;;;;;;5079005;28;20208;-72
2020/12/23 11:55:05;;;;;;;23.83;18.23;;;;;;;;;;5092293;28;20198;-72
2020/12/23 11:57:31;;;;;;;18.98;14.10;;;;;;;;;;5073747;28;20225;-72
2020/12/23 11:59:57;;;;;;;15.23;12.02;;;;;;;;;;5081252;28;20648;-72
2020/12/23 12:02:23;;;;;;;20.15;15.63;;;;;;;;;;5085177;28;20191;-72
2020/12/23 12:04:49;;;;;;;17.48;12.98;;;;;;;;;;5081024;28;20404;-72
2020/12/23 12:07:15;;;;;;;20.20;12.33;;;;;;;;;;5072202;28;20556;-72
2020/12/23 12:09:41;;;;;;;19.23;12.43;;;;;;;;;;5093815;28;20459;-73
2020/12/23 12:12:07;;;;;;;22.15;14.55;;;;;;;;;;5082631;28;20887;-71
2020/12/23 12:14:33;;;;;;;20.90;14.88;;;;;;;;;;5080178;28;20188;-71
2020/12/23 12:16:59;;;;;;;21.02;12.65;;;;;;;;;;5079935;28;20574;-73
2020/12/23 12:19:25;;;;;;;19.23;14.40;;;;;;;;;;5075136;28;20200;-72
2020/12/23 12:21:51;;;;;;;20.73;13.88;;;;;;;;;;5075562;28;20226;-72
2020/12/23 12:24:17;;;;;;;24.02;16.55;;;;;;;;;;5090657;28;20969;-72
2020/12/23 12:26:44;;;;;;;21.23;14.60;;;;;;;;;;5090613;28;20187;-72
2020/12/23 12:29:11;;;;;;;23.30;15.15;;;;;;;;;;5091882;28;20207;-72
2020/12/23 12:31:37;;;;;;;21.60;13.50;;;;;;;;;;5090312;28;20199;-71
2020/12/23 12:34:03;;;;;;;22.83;14.82;;;;;;;;;;5080345;28;20704;-72
2020/12/23 12:36:29;;;;;;;20.65;14.32;;;;;;;;;;5083170;28;20186;-72
2020/12/23 12:38:55;;;;;;;21.33;13.68;;;;;;;;;;5091547;28;20190;-72
2020/12/23 12:41:24;;;;;;;22.45;14.88;;;;;;;;;;5090921;28;20183;-71
2020/12/23 12:43:50;;;;;;;22.58;15.57;;;;;;;;;;5074961;28;20552;-72
2020/12/23 12:46:16;;;;;;;21.27;13.57;;;;;;;;;;5071472;28;20631;-71
2020/12/23 12:48:43;;;;;;;22.20;16.75;;;;;;;;;;5084446;28;20198;-71
2020/12/23 12:51:09;;;;;;;25.75;18.42;;;;;;;;;;5085318;28;20671;-72
2020/12/23 12:53:36;;;;;;;18.33;14.02;;;;;;;;;;5086529;28;21027;-72
2020/12/23 12:56:02;;;;;;;19.67;14.48;;;;;;;;;;5079883;28;20532;-71
2020/12/23 12:58:28;;;;;;;24.40;14.98;;;;;;;;;;5091071;28;20266;-72
2020/12/23 13:00:54;;;;;;;17.08;13.57;;;;;;;;;;5071077;28;20300;-72
2020/12/23 13:03:20;;;;;;;15.32;11.80;;;;;;;;;;5082187;28;20183;-72
2020/12/23 13:05:50;;;;;;;22.75;14.23;;;;;;;;;;5071179;28;20259;-72
2020/12/23 13:08:16;;;;;;;16.88;11.93;;;;;;;;;;5084521;28;20320;-70
2020/12/23 13:10:42;;;;;;;21.25;13.85;;;;;;;;;;5084494;28;20239;-72
2020/12/23 13:13:08;;;;;;;19.20;14.80;;;;;;;;;;5078446;28;20293;-71
2020/12/23 13:15:34;;;;;;;18.90;14.52;;;;;;;;;;5070708;28;20779;-71
2020/12/23 13:18:00;;;;;;;17.40;13.90;;;;;;;;;;5084204;28;20680;-72
2020/12/23 13:20:26;;;;;;;21.60;15.40;;;;;;;;;;5083213;28;20203;-71
2020/12/23 13:22:52;;;;;;;21.55;14.07;;;;;;;;;;5077766;28;20180;-71
2020/12/23 13:25:18;;;;;;;22.20;13.82;;;;;;;;;;5074480;28;20179;-71
2020/12/23 13:27:44;;;;;;;21.35;14.10;;;;;;;;;;5077477;28;20188;-71
2020/12/23 13:30:10;;;;;;;19.63;13.38;;;;;;;;;;5084550;28;20533;-70
2020/12/23 13:32:36;;;;;;;17.60;12.77;;;;;;;;;;5084534;28;20959;-71
2020/12/23 13:35:03;;;;;;;22.65;13.80;;;;;;;;;;5080565;28;20679;-71
2020/12/23 13:37:29;;;;;;;23.35;13.18;;;;;;;;;;5089368;28;20186;-71
2020/12/23 13:39:55;;;;;;;17.80;12.77;;;;;;;;;;5080151;28;20200;-72
2020/12/23 13:42:21;;;;;;;17.88;12.30;;;;;;;;;;5070273;28;20207;-71
2020/12/23 13:44:47;;;;;;;17.35;11.35;;;;;;;;;;5075048;28;20183;-72
2020/12/23 13:47:13;;;;;;;20.73;11.32;;;;;;;;;;5084897;28;20869;-72
2020/12/23 13:49:38;;;;;;;20.25;11.40;;;;;;;;;;5090276;28;20233;-71
2020/12/23 13:52:10;;;;;;;20.73;12.57;;;;;;;;;;5074579;28;20266;-71
2020/12/23 13:54:36;;;;;;;19.30;13.10;;;;;;;;;;5075229;28;20689;-71
2020/12/23 13:57:02;;;;;;;23.90;14.07;;;;;;;;;;5084249;28;20304;-71
2020/12/23 13:59:28;;;;;;;21.15;13.48;;;;;;;;;;5080022;28;20229;-72
2020/12/23 14:01:54;;;;;;;23.67;16.15;;;;;;;;;;5075968;28;20671;-72
2020/12/23 14:04:20;;;;;;;20.63;14.05;;;;;;;;;;5069717;28;20195;-73
2020/12/23 14:06:46;;;;;;;19.17;11.83;;;;;;;;;;5076695;28;20219;-72
2020/12/23 14:09:12;;;;;;;15.38;11.32;;;;;;;;;;5093070;28;20446;-70
2020/12/23 14:11:38;;;;;;;16.02;10.77;;;;;;;;;;5081937;28;20186;-72
2020/12/23 14:14:04;;;;;;;16.90;11.73;;;;;;;;;;5079486;28;20210;-72
2020/12/23 14:16:30;;;;;;;17.38;11.55;;;;;;;;;;5073395;28;20181;-72
2020/12/23 14:18:56;;;;;;;14.32;10.60;;;;;;;;;;5089615;28;20175;-71